Time;durP1;ratioP1;P1;durP2;ratioP2;P2;SDS_P1;SDS_P2;PMS_P1;PMS_P2;Temp;Humidity;BMP_temperature;BMP_pressure;BME280_temperature;BME280_humidity;BME280_pressure;Samples;Min_cycle;Max_cycle;Signal;HPM_P1;HPM_P2
2021/10/29 00:00:34;;;;;;;19.12;11.33;;;;;;;12.41;71.72;101386.92;1799718;79;21094;-69
2021/10/29 00:03:04;;;;;;;20.40;11.45;;;;;;;12.39;71.79;101393.13;1799621;79;20983;-68
2021/10/29 00:05:34;;;;;;;22.17;11.90;;;;;;;12.35;71.91;101387.14;1799724;79;21043;-68
2021/10/29 00:08:04;;;;;;;19.25;11.40;;;;;;;12.32;72.05;101388.86;1800860;79;21111;-68
2021/10/29 00:10:33;;;;;;;21.45;11.40;;;;;;;12.29;72.10;101385.10;1800028;78;21118;-68
2021/10/29 00:13:02;;;;;;;17.80;10.82;;;;;;;12.27;72.17;101389.94;1799606;80;21137;-69
2021/10/29 00:15:31;;;;;;;20.30;11.18;;;;;;;12.27;72.15;101395.42;1799636;80;21015;-69
2021/10/29 00:18:00;;;;;;;20.20;11.40;;;;;;;12.26;72.05;101394.23;1799528;79;21162;-69
2021/10/29 00:20:29;;;;;;;19.90;11.05;;;;;;;12.15;72.04;101387.28;1799907;79;21489;-69
2021/10/29 00:22:58;;;;;;;20.88;11.00;;;;;;;12.02;72.12;101388.42;1800126;78;21153;-70
2021/10/29 00:25:27;;;;;;;21.73;11.28;;;;;;;11.89;72.35;101379.93;1799544;79;21066;-69
2021/10/29 00:27:55;;;;;;;19.32;11.25;;;;;;;11.85;72.45;101379.44;1799840;78;21551;-67
2021/10/29 00:30:26;;;;;;;21.70;11.88;;;;;;;11.80;72.62;101376.91;1799677;79;21142;-68
2021/10/29 00:32:56;;;;;;;18.95;11.30;;;;;;;11.74;72.86;101381.20;1799939;79;21448;-69
2021/10/29 00:35:25;;;;;;;20.45;11.03;;;;;;;11.66;73.08;101381.22;1799778;78;21054;-69
2021/10/29 00:37:54;;;;;;;24.60;11.50;;;;;;;11.62;73.15;101389.48;1800111;79;21027;-69
2021/10/29 00:40:23;;;;;;;22.67;11.70;;;;;;;11.58;73.23;101390.36;1800097;79;21102;-70
2021/10/29 00:42:51;;;;;;;19.02;10.65;;;;;;;11.56;73.34;101387.45;1800157;79;21423;-69
2021/10/29 00:45:21;;;;;;;20.55;11.33;;;;;;;11.52;73.33;101399.31;1800222;79;21481;-69
2021/10/29 00:47:53;;;;;;;18.52;10.38;;;;;;;11.47;73.46;101396.25;1799945;78;21709;-69
2021/10/29 00:50:22;;;;;;;21.52;10.65;;;;;;;11.43;73.51;101401.76;1799916;78;21458;-67
2021/10/29 00:52:52;;;;;;;19.75;10.68;;;;;;;11.37;73.61;101407.45;1799774;80;21517;-69
2021/10/29 00:55:22;;;;;;;19.57;11.03;;;;;;;11.33;73.65;101406.61;1800135;79;21142;-68
2021/10/29 00:57:51;;;;;;;21.25;10.80;;;;;;;11.32;73.75;101403.53;1799755;78;21083;-69
2021/10/29 01:00:22;;;;;;;19.00;11.05;;;;;;;11.28;73.82;101397.54;1800019;79;21513;-68
2021/10/29 01:02:53;;;;;;;19.95;11.20;;;;;;;11.24;74.00;101400.30;1799748;79;21488;-71
2021/10/29 01:05:22;;;;;;;18.55;10.45;;;;;;;11.24;74.13;101403.56;1799514;79;21050;-69
2021/10/29 01:07:51;;;;;;;15.85;10.13;;;;;;;11.23;74.18;101399.96;1799772;78;21007;-69
2021/10/29 01:10:23;;;;;;;23.38;11.50;;;;;;;11.22;74.24;101399.63;1800297;79;21067;-69
2021/10/29 01:12:52;;;;;;;22.85;11.08;;;;;;;11.21;74.34;101398.42;1800117;79;21396;-68
2021/10/29 01:15:22;;;;;;;15.93;10.30;;;;;;;11.19;74.42;101399.98;1799850;78;21019;-68
2021/10/29 01:17:51;;;;;;;19.48;11.35;;;;;;;11.18;74.55;101398.78;1800396;78;21516;-67
2021/10/29 01:20:22;;;;;;;21.73;11.63;;;;;;;11.17;74.68;101396.55;1799533;79;21610;-69
2021/10/29 01:22:52;;;;;;;22.27;11.70;;;;;;;11.19;74.71;101390.38;1800045;78;21163;-69
2021/10/29 01:25:21;;;;;;;22.45;11.25;;;;;;;11.23;74.72;101387.61;1799859;79;21407;-68
2021/10/29 01:27:50;;;;;;;19.98;11.22;;;;;;;11.26;74.65;101385.89;1800092;79;21047;-69
2021/10/29 01:30:19;;;;;;;21.42;11.70;;;;;;;11.25;74.60;101389.66;1800537;79;21011;-69
2021/10/29 01:32:47;;;;;;;18.90;10.78;;;;;;;11.22;74.67;101392.77;1800089;79;20968;-69
2021/10/29 01:35:18;;;;;;;24.37;12.60;;;;;;;11.23;74.74;101391.73;1805778;79;21506;-67
2021/10/29 01:37:47;;;;;;;24.30;12.20;;;;;;;11.23;74.77;101388.12;1804899;78;21059;-68
2021/10/29 01:40:18;;;;;;;22.60;12.07;;;;;;;11.23;74.80;101393.62;1804674;79;21123;-69
2021/10/29 01:42:48;;;;;;;19.87;12.35;;;;;;;11.22;74.92;101397.39;1804677;78;21502;-71
2021/10/29 01:45:17;;;;;;;19.60;11.70;;;;;;;11.24;74.98;101399.44;1805511;78;21047;-69
2021/10/29 01:47:46;;;;;;;18.98;10.60;;;;;;;11.23;74.99;101400.48;1804846;79;21521;-69
2021/10/29 01:50:15;;;;;;;20.10;11.15;;;;;;;11.22;74.96;101396.02;1805040;79;21450;-66
2021/10/29 01:52:44;;;;;;;19.85;11.38;;;;;;;11.22;74.89;101397.39;1804866;78;21552;-67
2021/10/29 01:55:13;;;;;;;23.40;12.50;;;;;;;11.23;74.86;101398.59;1804658;79;21015;-69
2021/10/29 01:57:42;;;;;;;19.05;11.15;;;;;;;11.23;74.85;101400.48;1804623;79;21025;-67
2021/10/29 02:00:12;;;;;;;20.25;11.35;;;;;;;11.23;74.87;101396.36;1804705;78;21011;-70
2021/10/29 02:02:41;;;;;;;20.82;11.88;;;;;;;11.21;74.90;101392.94;1805497;79;21023;-69
2021/10/29 02:05:11;;;;;;;21.85;11.68;;;;;;;11.21;74.95;101397.91;1804727;79;21011;-68
2021/10/29 02:07:41;;;;;;;21.82;12.00;;;;;;;11.21;74.88;101398.42;1804758;79;21617;-69
2021/10/29 02:10:10;;;;;;;21.85;12.15;;;;;;;11.20;74.85;101396.72;1804686;79;21043;-68
2021/10/29 02:12:39;;;;;;;19.77;12.05;;;;;;;11.20;74.84;101396.72;1804677;78;21100;-68
2021/10/29 02:15:09;;;;;;;21.35;11.00;;;;;;;11.19;74.82;101400.50;1805009;79;21093;-70
2021/10/29 02:17:39;;;;;;;20.70;11.22;;;;;;;11.15;74.79;101412.34;1804717;79;20987;-68
2021/10/29 02:20:10;;;;;;;20.10;11.50;;;;;;;11.09;74.78;101404.30;1805069;79;21070;-69
2021/10/29 02:22:39;;;;;;;21.10;11.30;;;;;;;11.06;74.80;101403.80;1804798;78;21094;-69
2021/10/29 02:25:09;;;;;;;22.80;12.10;;;;;;;10.99;74.80;101407.73;1804663;79;21006;-69
2021/10/29 02:27:37;;;;;;;24.12;13.48;;;;;;;10.95;74.91;101415.11;1805070;78;21063;-69
2021/10/29 02:30:08;;;;;;;23.05;13.25;;;;;;;10.89;75.09;101415.30;1804705;79;21494;-68
2021/10/29 02:32:37;;;;;;;23.22;12.63;;;;;;;10.88;75.22;101416.33;1804682;79;21031;-69
2021/10/29 02:35:06;;;;;;;22.22;12.98;;;;;;;10.87;75.32;101415.98;1808780;78;21074;-66
2021/10/29 02:37:35;;;;;;;25.68;12.78;;;;;;;10.86;75.34;101410.16;1813305;79;21466;-68
2021/10/29 02:40:06;;;;;;;21.73;12.78;;;;;;;10.86;75.34;101412.05;1813726;78;21455;-69
2021/10/29 02:42:35;;;;;;;22.05;11.95;;;;;;;10.84;75.43;101416.85;1813519;78;21055;-68
2021/10/29 02:45:06;;;;;;;23.65;11.97;;;;;;;10.76;75.39;101414.98;1814073;78;21010;-68
2021/10/29 02:47:34;;;;;;;20.25;11.57;;;;;;;10.70;75.53;101417.05;1813017;79;21113;-68
2021/10/29 02:50:05;;;;;;;22.45;11.95;;;;;;;10.68;75.52;101421.84;1812164;79;21446;-70
2021/10/29 02:52:33;;;;;;;17.35;10.98;;;;;;;10.66;75.49;101422.54;1813551;79;21038;-69
2021/10/29 02:55:02;;;;;;;19.17;11.40;;;;;;;10.63;75.48;101422.88;1814413;78;21407;-70
2021/10/29 02:57:32;;;;;;;18.87;10.90;;;;;;;10.58;75.43;101422.55;1814401;78;21102;-69
2021/10/29 03:00:03;;;;;;;19.25;10.72;;;;;;;10.54;75.41;101425.30;1813716;78;21516;-70
2021/10/29 03:02:33;;;;;;;22.25;11.08;;;;;;;10.51;75.42;101427.86;1813780;78;21038;-69
2021/10/29 03:05:03;;;;;;;20.08;11.15;;;;;;;10.47;75.47;101427.86;1814118;78;21062;-69
2021/10/29 03:07:32;;;;;;;19.85;11.40;;;;;;;10.39;75.59;101435.54;1813178;79;22120;-68
2021/10/29 03:10:06;;;;;;;20.15;10.65;;;;;;;10.34;75.67;101426.98;1813541;78;21032;-69
2021/10/29 03:12:35;;;;;;;20.15;10.95;;;;;;;10.29;75.66;101437.59;1813309;79;21041;-68
2021/10/29 03:15:05;;;;;;;18.98;11.60;;;;;;;10.24;75.67;101431.77;1813675;78;21152;-69
2021/10/29 03:17:35;;;;;;;20.82;11.60;;;;;;;10.20;75.73;101434.51;1813425;79;21501;-69
2021/10/29 03:20:07;;;;;;;25.77;13.03;;;;;;;10.17;75.80;101430.19;1812943;79;21070;-69
2021/10/29 03:22:37;;;;;;;21.42;12.63;;;;;;;10.17;75.92;101434.30;1813636;78;21020;-69
2021/10/29 03:25:07;;;;;;;25.08;12.23;;;;;;;10.14;75.92;101429.67;1813278;79;21018;-70
2021/10/29 03:27:35;;;;;;;21.27;11.95;;;;;;;10.13;75.92;101429.33;1813404;78;21038;-69
2021/10/29 03:30:05;;;;;;;20.97;11.68;;;;;;;10.11;76.01;101430.02;1813696;78;21062;-68
2021/10/29 03:32:34;;;;;;;23.18;12.78;;;;;;;10.08;76.10;101424.88;1812735;79;21059;-71
2021/10/29 03:35:04;;;;;;;25.35;13.10;;;;;;;10.07;76.14;101427.27;1813412;78;21089;-69
2021/10/29 03:40:24;;;;;;;;;;;;;;;10.03;76.27;101431.38;1790579;78;21451;-68
2021/10/29 03:43:33;;;;;;;25.23;13.28;;;;;;;10.02;76.22;101433.26;1813158;79;20563;-69
2021/10/29 03:45:19;;;;;;;27.30;14.18;;;;;;;9.96;76.10;101430.34;1807339;78;20999;-70
2021/10/29 03:47:55;;;;;;;30.27;15.55;;;;;;;9.89;76.09;101434.27;1813015;79;21089;-70
2021/10/29 03:50:31;;;;;;;26.35;14.50;;;;;;;9.82;76.15;101438.18;1813579;78;21062;-69
2021/10/29 03:52:57;;;;;;;24.65;13.88;;;;;;;9.76;76.10;101440.22;1813033;79;21062;-69
2021/10/29 03:55:24;;;;;;;32.33;14.28;;;;;;;9.70;76.13;101444.10;1813828;78;21441;-70
2021/10/29 03:57:53;;;;;;;22.37;13.20;;;;;;;9.66;76.10;101446.31;1814367;78;21011;-69
2021/10/29 04:00:28;;;;;;;28.83;14.15;;;;;;;9.60;76.11;101451.59;1813983;78;21445;-66
2021/10/29 04:03:02;;;;;;;29.48;15.43;;;;;;;9.50;76.29;101451.22;1813576;78;21442;-70
2021/10/29 04:05:33;;;;;;;27.70;15.38;;;;;;;9.46;76.56;101451.72;1813395;78;21445;-68
2021/10/29 04:08:03;;;;;;;29.77;15.93;;;;;;;9.44;76.66;101449.14;1813468;79;21039;-70
2021/10/29 04:10:32;;;;;;;25.12;14.10;;;;;;;9.45;76.75;101450.00;1813441;79;20990;-70
2021/10/29 04:13:02;;;;;;;26.02;13.68;;;;;;;9.48;76.71;101453.78;1813691;78;21454;-70
2021/10/29 04:15:31;;;;;;;25.82;13.75;;;;;;;9.46;76.52;101453.09;1814100;78;21065;-69
2021/10/29 04:18:00;;;;;;;26.35;13.72;;;;;;;9.41;76.52;101450.84;1813280;79;21505;-71
2021/10/29 04:20:30;;;;;;;31.40;14.65;;;;;;;9.37;76.55;101452.19;1813579;78;21087;-69
2021/10/29 04:22:59;;;;;;;28.45;14.85;;;;;;;9.35;76.63;101461.08;1813583;79;21430;-70
2021/10/29 04:25:28;;;;;;;27.95;14.73;;;;;;;9.31;76.64;101456.09;1813933;78;21458;-68
2021/10/29 04:27:59;;;;;;;28.27;14.28;;;;;;;9.32;76.65;101457.30;1814197;78;21439;-69
2021/10/29 04:30:29;;;;;;;26.82;14.60;;;;;;;9.31;76.72;101461.56;1813798;78;20987;-72
2021/10/29 04:32:58;;;;;;;30.17;14.60;;;;;;;9.31;76.69;101464.30;1813520;78;21462;-69
2021/10/29 04:35:27;;;;;;;25.32;14.15;;;;;;;9.29;76.64;101464.97;1794995;79;21659;-68
2021/10/29 04:37:57;;;;;;;26.30;14.35;;;;;;;9.27;76.46;101477.45;1804635;79;21055;-69
2021/10/29 04:40:28;;;;;;;24.07;13.90;;;;;;;9.26;76.38;101472.14;1774599;79;21023;-69
2021/10/29 04:42:59;;;;;;;26.40;14.87;;;;;;;9.26;76.35;101478.47;1805102;76;21485;-70
2021/10/29 04:45:28;;;;;;;27.60;14.80;;;;;;;9.25;76.34;101482.22;1804620;79;20998;-68
2021/10/29 04:47:57;;;;;;;24.40;14.47;;;;;;;9.25;76.39;101486.83;1805547;78;21015;-69
2021/10/29 04:50:25;;;;;;;29.72;15.48;;;;;;;9.24;76.46;101487.34;1804643;79;21022;-70
2021/10/29 04:52:54;;;;;;;30.00;15.90;;;;;;;9.20;76.33;101484.08;1804722;79;21129;-70
2021/10/29 04:55:23;;;;;;;29.65;15.95;;;;;;;9.19;76.35;101487.83;1804533;79;21118;-70
2021/10/29 04:57:52;;;;;;;31.77;16.62;;;;;;;9.16;76.30;101490.89;1804789;79;21116;-70
2021/10/29 05:00:23;;;;;;;35.63;18.12;;;;;;;9.14;76.37;101490.70;1804690;79;21043;-71
2021/10/29 05:02:55;;;;;;;36.75;18.02;;;;;;;9.12;76.54;101499.06;1804591;79;21027;-70
2021/10/29 05:05:24;;;;;;;36.33;17.85;;;;;;;9.11;76.66;101497.86;1804684;79;21111;-69
2021/10/29 05:07:54;;;;;;;33.58;17.70;;;;;;;9.11;76.73;101503.33;1804911;78;21189;-69
2021/10/29 05:10:24;;;;;;;35.23;17.10;;;;;;;9.12;76.72;101500.44;1804653;79;21467;-70
2021/10/29 05:12:52;;;;;;;38.45;18.75;;;;;;;9.13;76.69;101502.66;1804600;79;21046;-70
2021/10/29 05:15:22;;;;;;;36.10;17.87;;;;;;;9.10;76.80;101496.11;1805070;78;21018;-69
2021/10/29 05:17:51;;;;;;;40.95;18.87;;;;;;;9.11;76.98;101509.66;1804639;78;21015;-69
2021/10/29 05:20:20;;;;;;;38.78;20.62;;;;;;;9.14;77.18;101507.97;1804735;79;21087;-70
2021/10/29 05:22:49;;;;;;;41.55;20.20;;;;;;;9.19;77.31;101506.11;1804789;78;21058;-70
2021/10/29 05:25:18;;;;;;;31.87;19.30;;;;;;;9.23;77.41;101507.50;1804710;79;21046;-69
2021/10/29 05:27:47;;;;;;;38.13;19.70;;;;;;;9.26;77.44;101511.28;1804951;79;22154;-70
2021/10/29 05:30:16;;;;;;;36.48;19.45;;;;;;;9.29;77.44;101511.47;1804802;79;21512;-70
2021/10/29 05:32:45;;;;;;;36.80;20.43;;;;;;;9.29;77.51;101515.57;1804937;78;21113;-69
2021/10/29 05:35:13;;;;;;;41.50;21.48;;;;;;;9.32;77.62;101520.72;1804560;79;21044;-70
2021/10/29 05:37:42;;;;;;;40.65;20.75;;;;;;;9.33;77.72;101514.22;1799411;80;21561;-70
2021/10/29 05:40:12;;;;;;;40.15;21.10;;;;;;;9.41;77.78;101527.95;1806208;78;21468;-71
2021/10/29 05:42:42;;;;;;;41.65;21.45;;;;;;;9.45;77.66;101521.13;1799590;78;21604;-69
2021/10/29 05:45:11;;;;;;;41.05;20.97;;;;;;;9.49;77.66;101522.01;1799758;78;21102;-70
2021/10/29 05:47:42;;;;;;;40.70;21.15;;;;;;;9.55;77.63;101517.77;1799632;79;21157;-70
2021/10/29 05:50:13;;;;;;;44.30;21.70;;;;;;;9.58;77.60;101520.17;1799872;79;21046;-71
2021/10/29 05:52:44;;;;;;;40.65;21.02;;;;;;;9.57;77.53;101520.33;1799751;79;21275;-71
2021/10/29 05:55:19;;;;;;;41.75;23.18;;;;;;;9.59;77.63;101527.36;1799467;79;21494;-70
2021/10/29 05:57:52;;;;;;;41.80;23.50;;;;;;;9.62;77.60;101531.64;1800086;78;21550;-70
2021/10/29 06:00:27;;;;;;;43.65;24.70;;;;;;;9.64;77.63;101530.45;1799560;79;21039;-71
2021/10/29 06:02:56;;;;;;;49.90;26.80;;;;;;;9.66;77.64;101532.52;1800249;79;21450;-70
2021/10/29 06:05:25;;;;;;;48.73;28.27;;;;;;;9.69;77.68;101536.81;1777827;80;21063;-70
2021/10/29 06:07:56;;;;;;;56.35;28.00;;;;;;;9.71;77.67;101529.29;1799582;78;21102;-71
2021/10/29 06:10:24;;;;;;;58.58;28.15;;;;;;;9.76;77.62;101538.75;1799693;79;21089;-70
2021/10/29 06:12:55;;;;;;;61.00;30.27;;;;;;;9.83;77.54;101538.44;1799806;78;21007;-69
2021/10/29 06:15:25;;;;;;;57.62;28.85;;;;;;;9.89;77.44;101546.50;1799789;79;21015;-71
2021/10/29 06:17:54;;;;;;;61.35;32.05;;;;;;;9.95;77.41;101546.36;1799641;78;21562;-69
2021/10/29 06:20:25;;;;;;;59.30;31.65;;;;;;;9.99;77.33;101545.00;1800447;79;21023;-72
2021/10/29 06:22:55;;;;;;;67.25;33.98;;;;;;;10.02;77.29;101550.14;1799992;78;21149;-71
2021/10/29 06:25:27;;;;;;;65.00;31.65;;;;;;;10.08;77.25;101556.33;1799932;79;21138;-70
2021/10/29 06:30:45;;;;;;;58.25;32.85;;;;;;;10.14;77.29;101556.52;1799756;79;21039;-72
2021/10/29 06:33:19;;;;;;;63.58;34.23;;;;;;;10.20;77.40;101559.13;1799744;78;21008;-70
2021/10/29 06:35:48;;;;;;;59.50;32.65;;;;;;;10.26;77.46;101553.50;1800814;78;21644;-70
2021/10/29 06:38:17;;;;;;;60.48;33.20;;;;;;;10.31;77.46;101558.81;1804612;79;21019;-71
2021/10/29 06:40:48;;;;;;;61.45;32.58;;;;;;;10.39;77.46;101561.58;1804786;79;21114;-68
2021/10/29 07:40:45;;;;;;;33.20;16.05;;;;;;;12.84;76.42;101579.20;1804637;78;21023;-70
2021/10/29 07:43:23;;;;;;;28.57;14.47;;;;;;;13.18;75.45;101586.21;1805920;78;21055;-72
2021/10/29 07:45:45;;;;;;;34.20;17.07;;;;;;;13.44;74.20;101583.89;1804531;78;21246;-70
2021/10/29 07:48:14;;;;;;;26.75;13.15;;;;;;;13.68;73.18;101580.05;1804710;79;21084;-69
2021/10/29 07:50:43;;;;;;;25.15;12.78;;;;;;;13.93;72.19;101582.85;1804751;78;21058;-70
2021/10/29 07:53:11;;;;;;;27.55;12.93;;;;;;;14.19;70.95;101581.48;1804712;79;21088;-69
2021/10/29 07:55:41;;;;;;;28.17;14.43;;;;;;;14.46;69.88;101583.59;1804656;79;21161;-69
2021/10/29 07:58:13;;;;;;;30.23;14.03;;;;;;;14.73;68.70;101590.25;1802748;79;21407;-69
2021/10/29 08:03:59;;;;;;;23.20;13.65;;;;;;;15.01;66.77;101583.45;1791569;79;21025;-64
2021/10/29 08:06:37;;;;;;;29.37;14.45;;;;;;;15.09;66.35;101589.36;1791098;80;21026;-64
2021/10/29 08:09:07;;;;;;;28.12;15.08;;;;;;;15.17;65.81;101596.98;1791283;80;21180;-63
2021/10/29 08:11:38;;;;;;;30.77;17.45;;;;;;;15.22;65.08;101585.34;1791362;80;21053;-63
2021/10/29 08:14:08;;;;;;;34.53;18.50;;;;;;;15.18;64.69;101588.17;1790668;80;21077;-63
2021/10/29 08:16:44;;;;;;;27.35;15.75;;;;;;;15.12;65.21;101589.81;1802978;77;21455;-62
2021/10/29 08:19:14;;;;;;;29.63;16.37;;;;;;;15.20;65.33;101582.77;1819294;79;21072;-63
2021/10/29 08:21:44;;;;;;;28.77;16.15;;;;;;;15.27;65.06;101589.73;1804208;79;21570;-64
2021/10/29 08:24:13;;;;;;;29.18;15.48;;;;;;;15.30;64.44;101590.71;1810415;78;21006;-61
2021/10/29 08:26:42;;;;;;;39.95;16.15;;;;;;;15.23;63.89;101588.42;1818798;79;21002;-62
2021/10/29 08:29:12;;;;;;;34.98;18.75;;;;;;;15.20;64.17;101592.97;1799784;78;21006;-62
2021/10/29 08:31:49;;;;;;;196.75;29.23;;;;;;;15.21;64.31;101591.91;1786200;80;21259;-64
2021/10/29 08:37:10;;;;;;;28.20;16.12;;;;;;;15.22;64.31;101604.66;1812055;78;21086;-60
2021/10/29 08:39:47;;;;;;;26.70;15.95;;;;;;;15.16;64.27;101596.65;1804304;79;21051;-64
2021/10/29 08:42:40;;;;;;;30.00;16.55;;;;;;;15.12;64.32;101594.48;1818038;79;21144;-63
2021/10/29 08:45:10;;;;;;;28.45;15.32;;;;;;;15.07;64.50;101595.08;1821265;78;21030;-63
2021/10/29 08:47:49;;;;;;;27.80;15.75;;;;;;;15.09;64.37;101600.41;1812113;79;21451;-63
2021/10/29 08:50:22;;;;;;;30.12;15.88;;;;;;;15.09;64.47;101593.50;1811026;79;21110;-65
2021/10/29 08:52:52;;;;;;;28.55;16.12;;;;;;;15.05;64.66;101592.19;1804411;79;21007;-63
2021/10/29 08:55:27;;;;;;;34.30;14.50;;;;;;;15.05;64.74;101592.19;1804748;79;21047;-65
2021/10/29 08:57:56;;;;;;;23.92;14.25;;;;;;;15.06;64.54;101595.28;1804377;79;21058;-62
2021/10/29 09:00:42;;;;;;;19.65;12.37;;;;;;;15.05;64.54;101589.43;1804280;79;21042;-62
2021/10/29 09:03:29;;;;;;;22.40;12.63;;;;;;;15.04;64.49;101592.72;1804422;79;21053;-63
2021/10/29 09:06:06;;;;;;;23.30;12.90;;;;;;;15.01;64.51;101588.97;1804598;79;21015;-64
2021/10/29 09:08:59;;;;;;;25.05;12.50;;;;;;;15.01;64.40;101583.98;1773336;80;21375;-64
2021/10/29 09:17:13;;;;;;;24.07;12.70;;;;;;;15.04;64.48;101586.34;1773069;81;21463;-62
2021/10/29 09:31:24;;;;;;;16.15;9.55;;;;;;;14.95;63.91;101584.73;1772990;79;21074;-63
2021/10/29 09:34:12;;;;;;;17.07;10.68;;;;;;;14.95;63.88;101588.88;1781556;79;21469;-63
2021/10/29 09:36:45;;;;;;;17.85;11.40;;;;;;;14.90;63.87;101588.09;1805582;79;21105;-62
2021/10/29 09:39:17;;;;;;;21.60;10.03;;;;;;;14.83;63.94;101589.41;1813371;78;21555;-62
2021/10/29 09:42:12;;;;;;;16.50;11.10;;;;;;;14.77;64.03;101583.29;1804466;79;20983;-61
2021/10/29 09:44:52;;;;;;;14.70;10.50;;;;;;;14.73;64.27;101581.97;1778943;80;21438;-63
2021/10/29 09:47:28;;;;;;;20.92;11.30;;;;;;;14.71;64.37;101584.60;1766464;81;21543;-62
2021/10/29 09:50:01;;;;;;;18.52;10.65;;;;;;;14.68;64.45;101588.61;1765182;81;21545;-62
2021/10/29 09:57:33;;;;;;;17.77;11.22;;;;;;;14.76;64.43;101584.34;1766204;81;21097;-62
2021/10/29 10:00:11;;;;;;;18.57;10.70;;;;;;;14.76;64.40;101585.72;1766407;81;21530;-63
2021/10/29 10:02:46;;;;;;;16.95;10.75;;;;;;;14.78;64.24;101578.63;1771574;81;21480;-64
2021/10/29 10:05:16;;;;;;;14.43;9.70;;;;;;;14.80;64.00;101580.66;1788165;78;21078;-61
2021/10/29 10:07:50;;;;;;;15.50;9.45;;;;;;;14.82;63.80;101576.66;1810781;79;21043;-63
2021/10/29 10:10:21;;;;;;;14.98;9.65;;;;;;;14.84;63.54;101577.84;1795858;79;21055;-62
2021/10/29 10:13:04;;;;;;;20.08;10.32;;;;;;;14.82;63.47;101573.89;1774026;80;21039;-63
2021/10/29 10:15:36;;;;;;;17.55;9.60;;;;;;;14.86;63.46;101577.11;1782489;79;21166;-65
2021/10/29 10:18:21;;;;;;;18.82;7.62;;;;;;;14.89;63.12;101576.20;1803970;79;21110;-64
2021/10/29 10:21:08;;;;;;;15.98;8.53;;;;;;;14.93;62.68;101577.18;1804621;79;21014;-64
2021/10/29 10:23:40;;;;;;;15.15;7.33;;;;;;;14.94;62.44;101574.22;1804307;78;21015;-63
2021/10/29 10:41:01;;;;;;;18.48;9.20;;;;;;;15.10;60.56;101581.41;1796116;80;21059;-64
2021/10/29 10:48:48;;;;;;;15.72;10.48;;;;;;;15.15;60.82;101581.14;1813807;79;21011;-62
2021/10/29 10:54:20;;;;;;;17.00;9.88;;;;;;;15.21;61.13;101578.96;1788461;80;21182;-62
2021/10/29 10:57:24;;;;;;;17.45;9.83;;;;;;;15.24;60.98;101581.84;1790430;79;21246;-63
2021/10/29 11:00:05;;;;;;;16.15;8.68;;;;;;;15.23;60.85;101570.47;1772106;80;21198;-62
2021/10/29 11:11:19;;;;;;;14.73;8.33;;;;;;;15.24;60.19;101570.80;1780948;80;21466;-59
2021/10/29 11:13:50;;;;;;;11.48;7.10;;;;;;;15.24;59.92;101566.66;1781909;79;21540;-59
2021/10/29 11:16:35;;;;;;;10.68;6.47;;;;;;;15.28;59.76;101567.11;1813253;79;21019;-60
2021/10/29 11:19:17;;;;;;;8.93;6.12;;;;;;;15.30;59.30;101572.77;1795188;79;21008;-57
2021/10/29 11:21:56;;;;;;;11.10;5.70;;;;;;;15.30;58.78;101571.91;1813308;79;21090;-58
2021/10/29 11:24:38;;;;;;;9.08;5.60;;;;;;;15.30;58.81;101565.86;1813589;79;21047;-60
2021/10/29 11:27:15;;;;;;;12.55;5.45;;;;;;;15.32;58.72;101565.13;1790507;79;21162;-59
2021/10/29 11:29:51;;;;;;;8.15;5.60;;;;;;;15.35;58.55;101563.88;1790611;80;21039;-56
2021/10/29 11:32:21;;;;;;;;;;;;;;;15.34;58.42;101561.64;1816541;78;21356;-57
2021/10/29 11:35:02;;;;;;;8.93;5.58;;;;;;;15.35;58.23;101567.49;1812580;78;20646;-58
2021/10/29 11:37:35;;;;;;;13.38;6.37;;;;;;;15.36;58.24;101567.81;1789787;79;21308;-57
2021/10/29 11:40:10;;;;;;;15.08;7.03;;;;;;;15.37;58.20;101567.29;1809194;79;21070;-59
2021/10/29 11:42:39;;;;;;;12.20;6.62;;;;;;;15.38;58.18;101570.38;1760032;81;21498;-54
2021/10/29 11:45:11;;;;;;;13.08;7.75;;;;;;;15.39;58.05;101575.70;1765927;80;21039;-56
2021/10/29 11:47:40;;;;;;;12.82;5.87;;;;;;;15.39;58.04;101570.70;1775900;81;21051;-54
2021/10/29 11:50:12;;;;;;;15.88;7.42;;;;;;;15.41;57.94;101573.59;1759325;81;21087;-58
2021/10/29 11:52:42;;;;;;;13.38;6.70;;;;;;;15.43;57.90;101573.39;1760045;81;21515;-54
2021/10/29 11:55:38;;;;;;;12.23;6.47;;;;;;;15.44;57.65;101573.72;1724104;82;21106;-55
2021/10/29 11:58:23;;;;;;;14.45;6.15;;;;;;;15.45;57.58;101570.76;1775414;81;21163;-57
2021/10/29 12:01:07;;;;;;;10.43;6.30;;;;;;;15.49;57.50;101565.68;1760094;81;21131;-54
2021/10/29 12:09:23;;;;;;;12.40;5.97;;;;;;;15.46;57.11;101560.03;1794085;79;21023;-58
2021/10/29 12:11:58;;;;;;;12.37;6.28;;;;;;;15.46;57.25;101563.33;1793121;80;21464;-57
2021/10/29 12:14:30;;;;;;;13.58;6.60;;;;;;;15.46;57.30;101561.41;1794110;79;21108;-59
2021/10/29 12:17:47;;;;;;;15.78;7.12;;;;;;;15.45;57.15;101561.09;1688749;84;21086;-58
2021/10/29 12:19:54;;;;;;;15.45;6.60;;;;;;;15.45;57.30;101561.61;1679639;85;21073;-58
2021/10/29 12:22:45;;;;;;;15.58;7.28;;;;;;;15.43;57.35;101553.53;1704399;84;21086;-58
2021/10/29 12:25:29;;;;;;;23.27;8.48;;;;;;;15.41;57.39;101555.64;1685912;85;21094;-57
2021/10/29 12:33:19;;;;;;;14.68;7.50;;;;;;;15.46;57.75;101547.60;1687107;85;21079;-57
2021/10/29 12:53:46;;;;;;;12.05;7.10;;;;;;;15.43;57.31;101533.34;1788854;79;21431;-58
2021/10/29 13:01:57;;;;;;;15.58;7.15;;;;;;;15.45;57.09;101533.47;1812888;79;21023;-58
2021/10/29 13:04:45;;;;;;;11.97;6.03;;;;;;;15.44;57.00;101520.71;1799631;79;21034;-58
2021/10/29 13:07:15;;;;;;;13.18;7.50;;;;;;;15.44;56.97;101526.23;1782130;80;21446;-58
2021/10/29 13:16:07;;;;;;;11.10;6.72;;;;;;;15.41;56.30;101528.55;1748911;81;21151;-56
2021/10/29 13:18:52;;;;;;;9.90;6.45;;;;;;;15.38;56.34;101528.95;1785655;80;21046;-57
2021/10/29 13:52:44;;;;;;;12.93;6.70;;;;;;;15.23;55.95;101530.44;1783687;79;20979;-57
2021/10/29 13:55:22;;;;;;;15.25;6.60;;;;;;;15.21;56.02;101532.55;1804768;79;21078;-55
2021/10/29 13:58:08;;;;;;;12.98;6.67;;;;;;;15.18;56.11;101532.95;1785788;79;21169;-56
2021/10/29 14:30:04;;;;;;;12.35;5.92;;;;;;;14.63;57.29;101521.27;1804339;79;21138;-56
2021/10/29 14:34:52;;;;;;;19.77;8.05;;;;;;;14.48;57.67;101522.19;1816830;78;21065;-57
2021/10/29 14:37:36;;;;;;;47.15;11.97;;;;;;;14.42;57.83;101516.58;1790497;78;21407;-57
2021/10/29 14:40:08;;;;;;;47.55;11.20;;;;;;;14.36;57.95;101515.45;1812397;78;21027;-56
2021/10/29 14:42:37;;;;;;;48.35;11.53;;;;;;;14.30;58.18;101520.34;1770105;80;21594;-57
2021/10/29 15:00:14;;;;;;;19.23;7.28;;;;;;;14.06;59.04;101522.92;1816263;79;21532;-55
2021/10/29 15:29:11;;;;;;;12.20;6.17;;;;;;;13.14;61.60;101527.05;1802161;79;21011;-57
2021/10/29 15:51:16;;;;;;;16.73;7.60;;;;;;;12.56;63.41;101544.52;1778453;80;21126;-56
2021/10/29 15:53:46;;;;;;;18.42;9.30;;;;;;;12.49;63.57;101544.06;1799960;79;21031;-54
2021/10/29 15:56:27;;;;;;;18.95;9.85;;;;;;;12.45;63.80;101538.59;1814975;79;21070;-55
2021/10/29 16:02:07;;;;;;;22.48;11.00;;;;;;;12.41;64.11;101549.09;1801514;79;21301;-56
2021/10/29 16:18:33;;;;;;;38.67;16.00;;;;;;;12.34;64.99;101564.05;1738887;82;21061;-55
2021/10/29 16:21:02;;;;;;;43.35;18.67;;;;;;;12.36;65.12;101567.51;1747521;82;21521;-56
2021/10/29 16:23:40;;;;;;;46.83;19.45;;;;;;;12.36;65.38;101570.26;1759935;79;21107;-56
2021/10/29 16:26:26;;;;;;;34.08;17.15;;;;;;;12.36;65.62;101567.51;1803597;79;21152;-56
2021/10/29 16:31:56;;;;;;;37.65;17.23;;;;;;;12.41;66.45;101575.73;1804312;79;21018;-57
2021/10/29 16:34:36;;;;;;;34.88;17.65;;;;;;;12.46;66.75;101576.05;1804437;79;21465;-57
2021/10/29 16:37:17;;;;;;;31.35;16.07;;;;;;;12.48;66.98;101578.09;1804234;79;21477;-56
2021/10/29 16:39:49;;;;;;;32.58;15.60;;;;;;;12.50;67.30;101578.77;1807593;77;21567;-56
2021/10/29 16:42:19;;;;;;;35.00;16.30;;;;;;;12.49;67.61;101575.68;1809618;78;21465;-56
2021/10/29 16:44:56;;;;;;;29.48;15.72;;;;;;;12.47;68.01;101588.23;1809639;79;21023;-56